VNKT/KTM METAR and TAF weather

Enter ICAO airport designator
Station Type Date Time Source
VNKT METAR 2020/01/28 20:50 UTC NOAA

VNKT 282050Z 03005KT 6000 FEW015 BKN100 09/06 Q1019 NOSIG


Station Type Date Time Source
VNKT Decoded METAR 2020/01/28 20:50 UTC NOAA

Kathmandu Airport, Nepal (VNKT) 27-42N 085-22E 1337M
Jan 28, 2020 - 03:50 PM EST / 2020.01.28 2050 UTC
Wind: from the NNE (030 degrees) at 6 MPH (5 KT):0
Visibility: 3 mile(s):0
Sky conditions: mostly cloudy
Temperature: 48 F (9 C)
Dew Point: 42 F (6 C)
Relative Humidity: 81%
Pressure (altimeter): 30.09 in. Hg (1019 hPa)
ob: VNKT 282050Z 03005KT 6000 FEW015 BKN100 09/06 Q1019 NOSIG
cycle: 21

Station Type Date Time Source
VNKT TAF 2020/01/28 18:42 UTC NOAA

TAF VNKT 281700Z 2818/2918 10004KT 6000 FEW015
BECMG 2900/2902 00000KT 3000 BR FEW010 SCT025 PROB40 2901/2903 1500 BR
BECMG 2904/2905 14003KT 4000 HZ FEW015 SCT025
BECMG 2907/2909 25008KT 7000 FEW020 SCT025 BKN100
BECMG 2914/2915 21004KT 6000 FEW015 SCT025 BKN100

Example: see airport list